Date,TemperatureHighF,TemperatureAvgF,TemperatureLowF,DewpointHighF,DewpointAvgF,DewpointLowF,HumidityHigh,HumidityAvg,HumidityLow,PressureMaxIn,PressureMinIn,WindSpeedMaxMPH,WindSpeedAvgMPH,GustSpeedMaxMPH,PrecipitationSumIn
2013-1-1,39,31,27,36,30,27,98,96,86,30.49,30.34,1,0,4,0.00
2013-1-2,45,32,25,35,27,24,98,87,49,30.35,30.19,5,0,19,0.01
2013-1-3,44,32,23,35,26,22,96,81,42,30.19,30.07,8,1,23,0.15
2013-1-4,48,41,36,45,40,36,98,96,89,30.30,30.15,3,0,11,0.01
2013-1-5,43,40,37,41,38,36,98,94,84,30.18,30.08,2,0,7,0.12
2013-1-6,44,41,39,41,39,38,97,95,86,30.16,29.98,4,0,14,0.38
2013-1-7,48,43,40,48,43,39,99,98,97,30.14,29.80,14,1,16,0.80
2013-1-8,50,44,40,49,44,40,99,98,96,30.14,29.70,14,3,33,0.60
2013-1-9,50,39,33,48,38,32,98,97,95,29.93,29.65,17,3,31,1.55
2013-1-10,36,32,29,36,32,28,98,98,97,30.10,29.92,6,0,1,0.09
2013-1-11,34,29,26,32,28,25,98,97,92,30.32,30.09,4,0,3,0.00
2013-1-12,35,27,21,30,25,20,97,91,75,30.44,30.30,3,0,5,0.00
2013-1-13,34,27,18,30,24,17,96,92,77,30.49,30.43,3,0,6,0.01
2013-1-14,33,31,30,32,30,28,97,96,95,30.56,30.46,4,0,9,0.02
2013-1-15,40,33,27,38,32,26,98,96,84,30.69,30.56,1,0,3,0.00
2013-1-16,41,29,23,37,28,22,98,95,83,30.67,30.51,3,0,7,0.01
2013-1-17,40,30,26,38,29,25,98,96,88,30.52,30.28,5,0,9,0.00
2013-1-18,32,28,23,32,27,22,97,97,95,30.34,30.25,3,0,6,0.00
2013-1-19,32,30,27,32,29,26,98,97,97,30.38,30.33,1,0,3,0.00
2013-1-20,35,30,27,34,29,26,98,97,97,30.39,30.26,1,0,4,0.00
2013-1-21,32,29,26,31,28,26,98,98,97,30.26,30.12,3,0,0,0.01
2013-1-22,37,29,22,36,28,21,98,97,95,30.14,29.89,0,0,0,0.00
2013-1-23,40,36,33,40,36,32,99,98,98,30.12,29.82,5,0,0,0.52
2013-1-24,43,39,36,41,38,35,99,97,89,30.20,30.02,5,0,0,0.37
2013-1-25,50,41,32,46,40,31,99,96,85,30.04,29.91,4,0,7,0.01
2013-1-26,40,37,34,39,37,33,98,98,97,30.01,29.86,1,0,7,0.93
2013-1-27,40,38,36,40,38,36,99,98,98,30.03,29.97,3,0,11,0.61
2013-1-28,38,37,36,37,36,36,98,98,98,29.99,29.98,1,0,4,0.09
2013-2-2,40,38,36,39,37,36,98,98,97,30.27,30.24,2,0,6,0.06
2013-2-3,47,42,36,45,41,35,99,97,90,30.29,30.18,3,0,9,0.16
2013-2-4,49,44,42,45,43,41,99,96,83,30.19,29.86,3,0,7,0.00
2013-2-5,49,45,41,45,42,40,98,92,77,29.91,29.81,10,2,24,0.12
2013-2-6,47,44,42,42,40,39,94,87,73,30.02,29.77,6,1,20,0.06
2013-2-7,48,40,30,42,37,29,97,88,67,30.18,29.78,13,1,25,0.22
2013-2-8,43,35,27,38,33,26,97,93,79,30.29,30.18,1,0,4,0.00
2013-2-9,42,39,37,41,38,36,98,97,95,30.32,30.24,0,0,2,0.10
2013-2-10,47,38,30,41,36,30,98,93,74,30.36,30.30,6,1,11,0.00
2013-2-11,42,40,38,41,39,37,97,96,94,30.34,30.31,4,0,0,0.06
2013-2-12,48,44,40,45,43,39,98,96,90,30.39,30.26,9,0,0,0.00
2013-2-13,47,44,41,45,43,40,98,95,85,30.48,30.28,3,0,0,0.09
2013-2-14,48,44,41,44,42,40,98,94,84,30.54,30.47,3,0,10,0.08
2013-2-15,56,42,32,47,39,32,98,91,67,30.53,30.15,4,0,8,0.00
2013-2-16,45,40,33,44,40,32,98,96,88,30.18,30.10,3,0,11,0.55
2013-2-17,43,39,33,40,38,32,98,94,86,30.23,30.10,5,0,14,0.07
2013-2-18,45,37,31,39,35,30,98,91,75,30.10,29.75,5,0,11,0.00
2013-2-19,52,39,30,38,34,28,97,84,53,29.99,29.73,5,1,14,0.00
2013-2-20,44,36,29,39,34,28,97,93,78,30.03,29.98,4,0,14,0.02
2013-2-21,41,39,36,40,38,35,98,97,95,30.05,29.99,3,0,11,0.12
2013-2-22,45,39,33,42,38,32,97,95,88,30.03,29.65,14,2,28,0.48
2013-2-23,46,38,33,41,36,32,98,92,71,30.36,29.88,6,1,17,0.51
2013-2-24,46,42,35,39,37,34,97,85,76,30.36,29.93,6,1,20,0.02
2013-2-25,51,42,39,42,38,30,97,85,49,30.29,29.87,11,2,20,0.14
2013-2-26,46,40,30,38,34,29,97,80,60,30.34,30.18,7,0,16,0.03
2013-2-27,50,42,39,43,39,36,97,90,59,30.29,30.19,12,0,17,0.35
2013-2-28,51,43,39,50,42,38,98,97,96,30.29,30.17,8,0,21,0.47
2013-3-1,56,53,51,50,50,48,97,87,80,30.33,30.24,13,4,32,0.01
2013-3-2,56,48,36,48,44,35,96,86,72,30.25,30.04,14,2,29,0.38
2013-3-3,47,37,30,41,35,29,98,95,71,30.30,30.17,3,0,8,0.15
2013-3-4,54,37,26,37,31,25,97,82,40,30.29,29.92,2,0,2,0.00
2013-3-5,54,41,32,40,35,29,92,79,45,29.92,29.71,6,0,13,0.00
2013-3-6,43,39,34,42,38,33,97,95,89,29.88,29.57,2,0,8,0.49
2013-3-7,47,39,32,46,38,31,98,97,93,30.09,29.88,0,0,5,0.31
2013-3-8,54,38,29,45,35,28,98,89,63,30.23,30.07,4,1,10,0.00
2013-3-9,56,38,27,42,34,26,98,86,56,30.48,30.23,6,1,14,0.00
2013-3-10,48,40,31,41,37,30,97,89,71,30.48,30.41,5,0,14,0.01
2013-3-11,54,44,33,44,39,32,97,84,56,30.43,30.14,9,1,17,0.01
2013-3-12,53,50,46,49,48,43,98,93,83,30.14,30.03,9,1,20,0.56
2013-3-13,52,50,49,51,49,48,98,97,92,30.18,30.07,4,0,20,0.38
2013-3-14,53,50,48,51,48,44,98,94,84,30.13,30.00,6,0,14,0.03
2013-3-15,59,52,48,51,48,45,96,87,69,30.19,30.11,8,2,17,0.01
2013-3-16,51,44,35,47,42,34,97,92,74,30.11,29.86,13,2,28,0.40
2013-3-17,46,40,35,40,36,34,97,87,66,30.17,29.95,11,1,15,0.15
2013-3-18,53,42,34,40,35,28,97,79,43,30.24,30.09,8,2,21,0.13
2013-3-19,54,41,31,41,34,27,96,79,37,30.23,29.59,3,1,15,0.15
2013-3-20,51,43,35,48,41,34,97,93,71,30.00,29.37,25,3,40,0.92
2013-3-21,44,38,34,41,35,32,97,90,74,30.19,29.99,6,1,15,0.00
2013-3-22,47,37,30,37,32,28,97,86,51,30.36,30.19,7,1,16,0.00
2013-3-23,52,38,29,34,30,26,96,76,40,30.39,30.29,7,1,17,0.00
2013-3-24,59,40,28,37,31,26,96,74,31,30.30,30.11,6,0,20,0.00
2013-3-25,63,43,28,39,32,27,96,71,32,30.13,29.92,12,1,0,0.00
2013-3-26,61,46,34,43,37,33,94,74,44,29.99,29.94,10,1,0,0.00
2013-3-27,57,47,39,47,41,38,96,83,61,29.98,29.92,5,0,0,0.00
2013-3-28,63,49,37,49,43,36,97,81,55,30.13,29.98,13,1,18,0.01
2013-3-29,66,49,37,48,43,36,98,80,50,30.24,30.13,7,1,15,0.00
2013-3-30,70,49,33,48,41,32,97,77,39,30.25,30.07,5,1,11,0.00
2013-3-31,72,51,34,49,42,32,97,77,39,30.07,29.88,5,1,14,0.00
2013-4-1,63,49,36,50,44,35,97,85,60,30.14,29.95,9,2,16,0.00
2013-4-2,54,51,48,48,47,45,93,86,77,30.18,30.14,5,0,12,0.00
2013-4-3,65,52,44,48,46,43,96,81,51,30.17,29.93,6,1,14,0.00
2013-4-4,56,51,46,54,49,45,97,93,84,29.93,29.61,4,0,16,0.05
2013-4-5,58,52,47,51,49,46,97,90,72,29.85,29.70,14,4,33,0.11
2013-4-6,52,48,45,47,44,40,95,87,72,29.90,29.68,13,2,24,0.20
2013-4-7,45,42,40,43,41,38,96,94,85,29.86,29.48,7,1,14,1.13
2013-4-8,53,45,42,47,43,40,97,92,73,30.26,29.88,2,0,5,0.22
2013-4-9,54,48,41,47,44,40,97,85,69,30.33,30.16,6,1,13,0.00
2013-4-10,56,51,47,50,45,41,94,81,64,30.24,29.89,13,2,27,0.19
2013-4-11,53,46,37,44,41,35,96,82,59,30.28,30.18,6,1,14,0.20
2013-4-12,48,40,35,41,38,34,97,92,72,30.18,29.66,9,1,21,0.40
2013-4-13,46,41,37,44,38,32,96,91,74,29.97,29.72,6,1,16,0.36
2013-4-14,54,43,37,45,39,35,97,87,56,30.00,29.90,3,0,9,0.23
2013-4-15,54,43,36,43,39,34,97,86,60,30.17,29.93,4,1,13,0.20
2013-4-16,58,42,30,44,36,29,97,81,41,30.39,30.17,7,1,15,0.03
2013-4-17,60,46,32,42,37,31,97,75,41,30.44,30.38,7,2,16,0.01
2013-4-18,49,46,43,46,43,40,97,89,75,30.43,30.20,4,0,11,0.35
2013-4-19,53,49,47,52,48,46,98,97,93,30.20,30.04,3,1,11,0.74
2013-4-20,56,48,46,51,46,45,97,93,75,30.26,30.17,4,0,10,0.54
2013-4-21,54,46,37,48,44,36,97,91,67,30.36,30.22,4,0,14,0.41
2013-4-22,63,45,31,41,34,30,97,72,32,30.52,30.36,7,1,0,0.00
2013-4-23,65,46,31,43,36,30,96,72,31,30.42,30.23,11,1,14,0.00
2013-4-24,71,50,33,44,38,31,97,69,25,30.31,30.05,12,1,15,0.00
2013-4-25,73,54,36,48,41,34,96,67,31,30.12,30.03,6,1,13,0.00
2013-4-26,68,53,39,51,46,38,96,78,53,30.23,30.12,5,1,14,0.00
2013-4-27,55,51,48,49,46,40,95,82,59,30.20,30.13,11,1,23,0.34
2013-4-28,55,50,46,48,46,43,96,87,71,30.20,29.92,7,1,20,0.15
2013-4-29,57,48,41,46,36,29,94,67,36,30.14,29.90,9,3,21,0.18
2013-4-30,57,45,34,43,35,24,94,70,31,30.43,30.14,10,1,15,0.14
2013-5-1,66,47,30,42,35,28,96,68,35,30.57,30.44,6,1,15,0.01
2013-5-2,68,48,36,46,40,35,96,77,42,30.54,30.35,10,0,6,0.00
2013-5-3,72,54,36,52,44,35,96,73,42,30.38,30.21,5,1,15,0.00
2013-5-4,80,58,38,52,45,37,97,68,29,30.24,29.99,6,1,16,0.00
2013-5-5,85,62,42,56,48,41,96,66,32,29.99,29.75,6,1,13,0.00
2013-5-6,87,64,45,58,49,43,96,64,27,29.84,29.72,6,1,13,0.00
2013-5-7,74,58,46,56,51,44,96,78,50,29.98,29.80,5,1,13,0.00
2013-5-8,69,55,46,57,50,44,95,85,61,30.13,29.98,4,0,9,0.00
2013-5-9,71,58,44,57,50,43,97,78,47,30.21,30.09,9,1,12,0.00
2013-5-10,78,62,43,59,52,42,97,73,41,30.19,30.09,5,1,11,0.00
2013-5-11,84,65,50,62,53,48,95,69,37,30.16,29.97,8,1,16,0.00
2013-5-12,69,62,56,60,57,52,97,85,61,30.07,29.97,8,1,18,0.18
2013-5-13,62,56,46,59,52,44,95,88,61,30.17,29.90,16,2,33,0.32
2013-5-14,68,54,46,48,44,40,94,72,39,30.21,30.10,5,1,13,0.00
2013-5-15,66,50,41,50,44,39,95,83,46,30.11,29.99,9,1,0,0.08
2013-5-16,72,59,51,55,52,50,96,79,54,30.01,29.84,9,1,14,0.03
2013-5-17,58,55,52,54,51,49,95,88,75,30.03,29.92,6,0,13,0.08
2013-5-18,61,55,52,52,49,45,91,79,60,30.26,30.03,6,1,14,0.00
2013-5-19,66,55,48,58,50,45,95,84,58,30.39,30.26,5,0,13,0.05
2013-5-20,71,53,41,53,47,40,97,80,48,30.33,29.88,7,1,10,0.00
2013-5-21,54,49,46,52,47,45,96,93,81,29.89,29.77,4,0,11,0.79
2013-5-22,51,47,44,49,45,43,96,93,87,29.93,29.83,5,1,11,0.09
2013-5-23,60,48,43,51,45,42,96,89,62,30.00,29.91,9,1,22,0.06
2013-5-24,65,52,41,54,46,40,97,82,57,30.03,29.96,3,0,8,0.00
2013-5-25,67,55,49,52,48,44,95,77,45,30.03,29.96,6,1,14,0.03
2013-5-26,62,54,48,58,51,47,95,89,74,29.98,29.93,4,0,12,0.05
2013-5-27,60,55,50,56,53,49,96,92,80,29.94,29.70,1,0,9,0.01
2013-5-28,64,56,51,54,51,49,96,84,62,29.86,29.75,8,1,15,0.00
2013-5-29,54,52,50,51,49,48,96,91,86,29.95,29.66,3,0,9,0.49
2013-5-30,61,53,48,53,49,47,97,87,66,30.23,29.95,9,1,0,0.10
2013-5-31,68,58,47,50,47,43,94,71,42,30.33,30.23,6,1,14,0.01
2013-6-1,73,58,46,54,49,44,95,73,46,30.24,30.03,6,1,13,0.02
2013-6-2,71,59,50,55,51,48,95,78,49,30.08,30.02,5,1,13,0.04
2013-6-3,74,58,44,56,51,43,97,78,51,30.10,30.04,6,1,13,0.00
2013-6-4,81,62,46,60,53,44,97,74,40,30.12,30.00,6,1,13,0.00
2013-6-5,76,62,48,61,54,46,95,77,53,30.08,30.01,6,1,14,0.00
2013-6-6,78,62,48,60,51,45,96,70,36,30.04,29.99,5,1,13,0.00
2013-6-7,66,59,51,54,49,44,87,71,50,30.15,30.00,6,1,15,0.00
2013-6-8,66,58,50,53,49,46,90,74,56,30.18,30.09,4,1,11,0.00
2013-6-9,69,58,50,50,48,44,92,72,45,30.11,30.02,5,1,13,0.00
2013-6-10,71,58,43,53,47,41,95,70,41,30.04,29.86,6,1,16,0.00
2013-6-11,64,55,49,54,49,46,94,82,54,30.09,29.92,7,1,16,0.09
2013-6-12,67,57,49,51,49,45,96,77,48,30.13,30.08,7,1,16,0.05
2013-6-13,65,57,52,54,51,47,96,82,56,30.20,30.12,5,1,12,0.05
2013-6-14,70,58,50,53,50,48,92,76,51,30.22,30.05,6,1,14,0.00
2013-6-15,78,59,43,58,51,41,97,79,46,30.05,29.89,6,-202,12,0.00
2013-6-16,73,60,49,61,54,48,97,81,56,30.07,29.97,5,0,12,0.08
2013-6-17,78,62,49,59,53,48,97,76,39,30.08,29.86,5,1,0,0.16
2013-6-18,74,62,53,57,53,44,97,75,37,29.95,29.85,6,1,0,0.00
2013-6-19,69,58,54,58,53,50,95,84,53,29.99,29.89,11,1,0,0.27
2013-6-20,57,54,52,54,52,51,96,95,83,30.09,29.94,0,0,3,1.42
2013-6-21,70,58,52,58,54,51,97,86,57,30.15,30.09,2,0,7,0.02
2013-6-22,79,63,48,60,53,47,97,74,41,30.11,29.83,5,1,12,0.00
2013-6-23,70,63,55,64,59,53,96,87,68,29.83,29.57,2,0,6,0.02
2013-6-24,66,61,57,61,58,55,97,90,69,29.68,29.56,8,0,20,0.37
2013-6-25,70,59,55,65,57,53,97,93,71,29.85,29.66,7,0,5,0.72
2013-6-26,72,62,54,65,58,53,98,88,60,30.07,29.83,7,1,18,0.05
2013-6-27,71,64,58,65,61,57,97,91,76,30.18,30.03,1,0,7,0.10
2013-6-28,88,70,59,74,63,58,97,79,44,30.18,30.01,4,0,11,0.00
2013-6-29,85,71,61,68,63,59,95,77,50,30.08,29.97,4,1,11,0.00
2013-6-30,92,73,57,73,64,56,97,76,49,30.00,29.83,5,1,13,0.00
2013-7-1,85,71,60,69,62,57,95,74,53,30.01,29.89,6,1,14,0.00
2013-7-2,80,67,57,64,57,52,92,72,43,30.09,30.01,5,1,12,0.00
2013-7-3,77,63,52,58,52,42,90,71,36,30.14,30.03,6,1,19,0.00
2013-7-4,74,62,54,58,53,49,90,74,49,30.10,30.00,4,1,11,0.00
2013-7-5,76,62,51,60,54,49,95,77,49,30.02,29.93,3,0,9,0.00
2013-7-6,80,64,50,62,56,49,97,77,49,29.96,29.84,6,1,15,0.00
2013-7-7,80,65,53,60,56,51,95,75,43,29.92,29.85,5,1,13,0.00
2013-7-8,80,65,53,62,57,51,95,78,50,30.07,29.92,6,1,12,0.00
2013-7-9,82,66,52,66,57,51,97,76,51,30.09,29.99,7,1,12,0.00
2013-7-10,74,60,54,58,53,49,89,80,56,30.03,29.94,8,1,3,0.00
2013-7-11,72,61,51,53,50,47,85,67,45,30.06,29.98,6,0,13,0.00
2013-7-12,70,57,46,56,50,44,93,78,55,30.09,30.00,5,1,11,0.00
2013-7-13,78,61,44,57,50,42,96,71,39,30.19,30.08,5,1,13,0.00
2013-7-14,81,62,45,58,50,44,96,69,36,30.12,29.98,5,1,13,0.00
2013-7-15,82,63,46,58,51,44,95,68,36,30.04,29.88,5,1,16,0.00
2013-7-16,88,67,50,63,55,48,96,69,34,29.89,29.78,4,0,10,0.00
2013-7-17,70,65,61,61,59,56,95,80,65,30.17,29.85,6,2,17,0.02
2013-7-18,77,65,57,61,56,53,89,75,54,30.21,30.10,5,1,13,0.00
2013-7-19,79,63,50,62,56,49,96,80,56,30.16,30.02,5,1,13,0.00
2013-7-20,78,63,53,62,57,50,96,81,56,30.07,29.94,4,1,9,0.00
2013-7-21,80,63,50,65,57,49,96,83,55,29.97,29.88,4,0,11,0.00
2013-7-22,79,64,54,64,58,52,96,81,53,30.04,29.92,3,1,10,0.00
2013-7-23,85,66,51,65,57,49,96,76,42,30.05,29.94,4,1,11,0.00
2013-7-24,82,65,50,60,55,48,96,73,46,30.03,29.98,7,1,15,0.00
2013-7-25,84,60,48,61,52,46,96,80,40,30.08,30.02,7,1,11,0.00
2013-7-26,85,64,47,59,52,46,96,68,33,30.13,30.07,10,1,0,0.00
2013-7-27,79,63,47,59,52,45,95,72,42,30.14,29.97,7,1,0,0.00
2013-7-28,74,60,47,58,53,45,96,78,54,30.00,29.93,8,2,0,0.00
2013-7-29,78,67,56,59,56,53,90,69,48,29.99,29.92,5,1,14,0.00
2013-7-30,79,64,51,61,56,49,96,77,50,30.11,29.98,4,1,12,0.00
2013-7-31,73,61,53,62,57,51,96,88,65,30.11,29.96,5,1,12,0.06
2013-8-1,64,60,57,59,57,55,96,89,80,30.05,30.01,3,0,11,0.00
2013-8-2,61,59,57,58,57,55,97,93,84,30.12,30.04,2,0,10,0.72
2013-8-3,73,64,59,63,59,57,97,86,62,30.12,30.03,5,1,11,0.01
2013-8-4,82,66,55,67,59,54,96,80,54,30.05,29.92,4,1,11,0.00
2013-8-5,84,66,53,65,58,51,97,76,47,30.00,29.91,5,1,13,0.00
2013-8-6,84,66,49,62,55,48,97,72,38,29.98,29.89,4,1,11,0.00
2013-8-7,84,66,51,64,56,49,97,73,40,29.99,29.92,5,1,14,0.00
2013-8-8,79,65,55,62,57,53,96,77,51,30.01,29.93,8,1,16,0.00
2013-8-9,82,65,51,62,57,49,95,75,49,29.95,29.81,5,1,12,0.00
2013-8-10,80,68,61,65,62,58,96,82,58,29.99,29.83,6,1,14,0.10
2013-8-11,76,65,57,64,58,54,96,82,59,30.04,29.97,3,0,9,0.04
2013-8-12,78,65,57,62,57,54,90,75,50,30.05,29.98,9,1,12,0.00
2013-8-13,83,66,55,62,57,53,95,74,45,30.08,29.91,5,1,13,0.00
2013-8-14,84,67,52,64,59,50,97,78,43,29.94,29.88,5,1,13,0.01
2013-8-15,70,66,63,66,64,62,97,93,79,29.98,29.90,3,0,8,0.13
2013-8-16,86,71,63,66,62,56,98,78,38,29.98,29.92,7,1,13,0.00
2013-8-17,78,66,59,65,60,56,95,80,57,30.06,29.98,3,0,10,0.00
2013-8-18,76,64,56,61,57,54,94,79,58,30.10,30.05,6,1,14,0.00
2013-8-19,80,65,58,62,56,51,92,74,50,30.11,30.04,6,1,14,0.00
2013-8-20,78,63,52,58,53,50,95,73,44,30.15,30.05,4,1,15,0.00
2013-8-21,83,63,46,61,53,45,97,73,42,30.08,29.91,4,1,12,0.00
2013-8-22,85,66,50,62,56,48,97,74,42,29.94,29.77,5,1,12,0.00
2013-8-23,76,65,58,61,58,56,94,80,56,29.88,29.80,5,1,15,0.00
2013-8-24,74,62,55,65,59,53,96,88,55,29.91,29.83,2,0,4,0.12
2013-8-25,71,62,48,60,56,47,97,83,61,29.93,29.85,4,0,10,0.00
2013-8-26,76,64,57,61,58,53,96,81,51,29.94,29.83,17,1,20,0.01
2013-8-27,81,67,59,64,59,57,95,79,51,29.94,29.77,4,1,13,0.00
2013-8-28,82,67,59,69,62,57,97,83,51,29.87,29.80,4,0,10,0.05
2013-8-29,74,65,62,68,63,60,97,94,76,29.99,29.83,6,0,20,0.53
2013-8-30,79,66,57,63,59,54,98,81,43,30.14,29.99,6,1,13,0.00
2013-8-31,84,63,49,64,56,47,97,80,48,30.07,29.82,5,1,12,0.00
2013-9-1,84,65,53,68,58,51,97,81,49,29.87,29.77,3,1,10,0.00
2013-9-2,81,66,54,63,58,53,97,78,47,29.93,29.83,5,1,12,0.00
2013-9-3,74,63,58,66,60,56,97,91,71,30.01,29.91,3,0,6,0.25
2013-9-4,69,62,56,64,59,55,97,92,80,30.03,29.99,7,0,0,0.00
2013-9-5,67,62,56,63,59,55,98,92,84,30.03,29.90,8,0,6,0.30
2013-9-6,73,64,60,68,61,59,98,92,76,30.09,29.93,4,0,10,1.50
2013-9-7,74,64,58,64,60,56,97,88,62,30.09,30.00,6,1,15,0.04
2013-9-8,78,64,56,65,59,54,97,86,61,30.09,30.00,4,1,9,0.01
2013-9-9,78,63,55,65,59,54,97,86,61,30.05,29.95,4,1,10,0.00
2013-9-10,80,64,55,68,59,53,97,86,59,29.98,29.86,3,0,7,0.00
2013-9-11,93,69,53,72,61,52,98,80,37,29.93,29.85,3,0,9,0.00
2013-9-12,80,64,55,66,59,54,97,85,58,29.97,29.88,6,1,12,0.00
2013-9-13,64,60,55,62,58,53,97,93,89,29.95,29.86,2,0,7,0.00
2013-9-14,66,63,61,62,61,60,96,93,86,29.87,29.72,4,0,0,0.01
2013-9-15,64,62,58,62,60,57,98,95,91,29.79,29.69,4,0,10,0.24
2013-9-16,63,60,55,61,58,54,97,95,91,29.92,29.79,4,0,11,0.28
2013-9-17,60,57,54,56,55,53,97,93,82,29.93,29.85,2,0,10,0.02
2013-9-18,70,57,49,60,54,48,98,88,58,30.06,29.92,2,0,7,0.09
2013-9-19,82,53,42,61,49,41,98,87,38,30.04,29.75,4,0,5,0.00
2013-9-20,77,58,45,59,52,44,97,81,43,29.75,29.56,8,1,18,0.03
2013-9-21,71,60,56,57,55,51,96,84,54,29.69,29.62,5,1,11,0.00
2013-9-22,60,57,54,56,53,50,95,88,74,29.69,29.55,6,1,17,0.16
2013-9-23,55,52,50,53,51,49,96,95,93,29.95,29.90,1,0,4,0.14
2013-9-24,61,52,49,57,51,48,97,94,76,29.95,29.82,2,0,10,0.56
2013-9-25,56,51,44,52,49,43,97,92,81,30.02,29.84,3,0,10,0.02
2013-9-26,64,49,40,53,46,39,97,88,61,30.12,30.02,4,0,11,0.00
2013-9-27,53,50,42,52,49,41,97,95,90,30.11,29.82,0,0,7,0.14
2013-9-28,59,54,51,58,52,50,98,96,93,29.82,29.33,18,1,18,0.92
2013-9-29,54,52,50,51,50,48,97,93,84,29.54,29.15,13,3,26,0.26
2013-9-30,58,52,49,52,48,46,94,87,77,29.89,29.38,9,2,26,0.00
2013-10-1,57,50,47,49,46,43,94,85,68,30.09,29.89,4,1,15,0.05
2013-10-2,52,50,48,50,48,46,96,94,88,30.16,30.04,1,0,7,0.26
2013-10-3,61,50,45,50,47,43,97,88,63,30.44,30.16,3,0,9,0.01
2013-10-4,66,50,37,54,45,36,97,85,49,30.47,30.34,3,0,7,0.00
2013-10-5,73,52,41,55,46,40,97,83,44,30.35,30.12,3,0,9,0.00
2013-10-6,78,55,40,54,45,39,98,76,26,30.12,29.86,9,1,19,0.00
2013-10-7,56,52,50,53,50,49,97,94,80,30.00,29.86,4,0,16,0.74
2013-10-8,59,50,39,50,46,38,97,90,61,30.07,29.94,4,0,12,0.25
2013-10-9,60,43,32,49,39,32,97,89,56,30.12,29.95,6,0,0,0.00
2013-10-10,58,49,43,50,46,42,98,90,70,30.05,29.93,5,0,0,0.00
2013-10-11,56,49,45,51,47,43,97,92,80,30.12,30.05,4,0,9,0.00
2013-10-12,58,49,41,50,46,39,97,90,72,30.20,30.05,5,0,12,0.03
2013-10-13,58,46,39,50,43,38,97,91,70,30.35,30.20,3,0,6,0.00
2013-10-14,60,44,33,49,41,32,99,90,65,30.41,30.35,6,0,4,0.00
2013-10-15,63,46,34,51,42,33,98,89,60,30.38,30.16,3,0,7,0.00
2013-10-16,52,47,42,49,45,40,97,94,87,30.19,30.14,1,0,5,0.00
2013-10-17,60,48,41,52,45,40,95,91,69,30.26,30.19,4,0,1,0.00
2013-10-18,60,45,36,52,42,35,97,91,72,30.24,30.13,4,0,7,0.00
2013-10-19,50,44,40,48,43,39,97,95,92,30.19,30.13,1,0,4,0.00
2013-10-20,49,46,44,47,45,43,97,95,93,30.19,30.14,1,0,5,0.01
2013-10-21,50,47,44,48,46,43,97,96,93,30.16,30.09,1,0,1,0.00
2013-10-22,51,47,44,49,46,43,97,96,93,30.11,30.02,1,0,4,0.00
2013-10-23,61,47,39,54,45,38,98,94,74,30.04,29.96,4,0,9,0.01
2013-10-24,54,41,0,49,42,36,98,94,83,30.11,30.00,5,0,3,0.00
2013-10-25,50,40,0,49,47,45,97,79,91,30.30,0.00,2,0,0,655.35
2013-10-26,52,36,0,48,46,45,97,69,83,30.32,0.00,2,0,0,0.00
2013-10-27,59,41,0,51,45,38,97,82,74,30.18,0.00,3,0,1,0.31
2013-10-28,63,43,33,46,37,32,98,83,39,29.95,29.86,5,0,13,0.00
2013-10-29,59,39,29,43,34,28,97,85,49,30.03,29.94,4,0,11,0.00
2013-10-30,55,43,30,47,39,29,97,87,64,30.12,30.03,3,0,11,0.01
2013-10-31,51,49,47,51,48,44,97,96,85,30.24,30.08,1,0,6,0.20
2013-11-1,59,52,48,56,51,47,98,95,84,30.26,29.81,2,0,6,0.01
2013-11-2,51,47,42,50,46,41,98,95,85,29.87,29.45,14,2,33,1.42
2013-11-3,50,41,32,46,40,31,98,95,83,30.10,29.86,4,0,8,0.26
2013-11-4,47,37,28,42,35,28,98,93,73,30.19,30.06,1,0,0,0.10
2013-11-5,49,44,40,48,44,39,98,97,96,30.25,30.01,3,0,0,0.15
2013-11-6,50,45,38,48,44,37,98,96,91,30.31,30.01,1,0,0,0.05
2013-11-7,48,47,46,48,46,45,98,97,95,30.01,29.69,10,1,12,0.07
2013-11-8,53,46,40,48,44,39,98,95,77,30.15,29.95,5,0,13,0.06
2013-11-9,51,42,34,47,41,33,98,94,82,30.15,30.05,1,0,3,0.05
2013-11-10,48,45,43,47,44,43,98,97,96,30.14,30.08,0,0,3,0.13
2013-11-11,56,45,38,54,44,38,99,97,91,30.15,29.99,2,0,0,0.00
2013-11-12,57,50,41,54,49,41,99,96,88,30.34,30.01,8,0,0,0.10
2013-11-13,57,51,48,51,48,47,97,91,74,30.41,30.30,10,1,0,0.00
2013-11-14,48,44,41,47,44,40,97,96,94,30.29,30.04,2,0,1,0.09
2013-11-15,45,44,42,44,43,39,98,97,85,30.05,29.30,127,1,20,0.81
2013-11-16,45,41,38,44,40,38,98,96,86,29.75,29.34,6,0,19,0.57
2013-11-17,50,44,33,46,42,32,98,94,86,29.88,29.76,9,1,28,0.02
2013-11-18,50,48,46,49,47,44,98,97,93,29.88,29.53,2,0,9,0.25
2013-11-19,51,42,34,50,38,24,98,84,59,30.06,29.51,8,1,20,0.34
2013-11-20,44,31,26,32,28,24,97,87,55,30.50,30.06,3,0,9,0.00
2013-11-21,43,28,21,32,25,20,96,88,51,30.66,30.50,2,0,6,0.00
2013-11-22,46,29,22,33,26,20,96,88,51,30.65,30.45,1,0,6,0.01
2013-11-23,48,32,24,38,29,23,97,90,62,30.45,30.20,2,0,7,0.00
2013-11-24,49,34,26,41,31,25,97,91,73,30.25,30.16,2,0,9,0.00
2013-11-25,52,35,28,43,33,27,98,92,68,30.31,30.25,1,0,0,0.00
2013-11-26,53,39,27,44,36,26,97,92,64,30.26,30.09,6,0,6,0.00
2013-11-27,53,41,31,46,38,30,97,91,73,30.09,29.94,2,0,5,0.00
2013-11-28,55,39,29,42,36,28,98,89,55,30.17,30.01,3,0,4,0.01
2013-11-29,48,42,35,44,40,34,97,93,83,30.31,30.16,3,0,10,0.01
2013-11-30,49,47,44,48,45,43,97,93,81,30.31,30.07,1,0,7,0.16
2013-12-1,50,48,0,50,48,38,98,97,93,30.06,29.73,4,0,17,0.88
2013-12-2,39,34,0,38,35,33,97,89,92,30.04,29.80,3,0,0,0.06
2013-12-3,34,30,0,33,29,26,97,93,92,30.30,0.00,2,0,2,0.00
2013-12-4,35,28,22,30,26,21,97,92,73,30.34,30.29,1,0,4,0.01
2013-12-5,32,24,18,26,22,17,95,90,71,30.32,30.19,3,0,7,0.00
2013-12-6,32,21,0,22,16,11,94,79,46,30.25,0.00,1,0,5,655.35
2013-12-7,28,17,0,17,10,6,92,72,46,30.43,30.25,4,0,10,0.00
2013-12-8,32,20,10,21,15,8,91,82,53,30.57,30.42,2,0,6,0.00
2013-12-9,30,23,14,27,20,12,93,88,78,30.59,30.48,1,0,4,0.00
2013-12-10,36,32,0,34,30,27,95,92,89,30.49,0.00,0,0,0,0.00
2013-12-11,40,31,25,35,29,24,97,93,78,30.41,30.16,2,0,0,0.00
2013-12-12,42,33,0,40,33,26,97,91,77,30.15,30.03,5,0,0,0.07
2013-12-13,45,42,0,44,42,38,98,97,97,30.40,30.12,0,0,3,0.04
2013-12-14,46,43,37,45,42,37,98,98,95,30.42,30.30,1,0,7,0.00
2013-12-15,47,45,41,47,45,40,98,97,94,30.44,30.31,1,0,8,0.08
2013-12-16,45,37,30,45,36,30,98,97,96,30.49,30.25,0,0,0,0.00
2013-12-17,39,35,30,39,34,29,98,98,97,30.25,30.10,1,0,0,0.01
2013-12-18,44,36,26,40,35,25,98,95,78,30.14,30.01,2,0,0,0.01
2013-12-19,35,28,22,32,27,21,97,95,89,30.34,30.15,1,0,0,0.00
2013-12-20,34,33,29,34,32,28,98,97,96,30.20,29.70,2,0,3,0.18
2013-12-21,40,36,33,39,35,32,98,98,98,30.16,29.83,2,0,4,0.88
2013-12-22,46,42,36,46,41,36,99,99,98,30.28,30.16,0,0,3,0.93
2013-12-23,48,45,40,48,44,38,99,96,81,30.51,30.11,7,1,19,0.58
2013-12-24,46,38,29,43,37,28,98,95,87,30.61,30.50,2,0,6,0.04
2013-12-25,42,33,26,38,32,25,98,95,83,30.53,30.38,1,0,5,0.01
2013-12-26,47,36,30,42,35,30,98,94,78,30.39,30.20,3,0,5,0.00
2013-12-27,41,36,30,40,35,29,98,98,97,30.36,30.09,1,0,4,0.12
2013-12-28,45,40,35,44,39,34,99,98,97,30.51,30.35,0,0,3,0.00
2013-12-29,40,37,36,39,37,35,98,98,98,30.47,30.30,1,0,4,0.01
2013-12-30,42,40,34,42,39,34,99,98,98,30.31,30.10,3,0,3,0.04
2013-12-31,45,42,39,45,42,38,99,98,98,30.37,30.18,0,0,2,0.05
2014-1-1,43,38,31,43,37,31,99,98,96,30.40,30.23,1,0,3,0.01
2014-1-2,48,43,39,45,42,38,99,97,86,30.23,29.88,5,1,15,0.44